Thunder radar more information blitzortung!


Löydät sääaseman tiedot myös:

European Weather Network

Finland Weather Exchange

Weather Underground

AWEKAS



Weather Underground säähistoriasivu

Päivittäin yhteenveto Marraskuu 7, 2017 Yksiköt:  Englantilaiset    Metriset   Molemmat
« Edellinen Päivä
Seuraava Päivä »
Päivittäin Viikoittain Kuukausittain Vuosittain Mukautettu
  Korkea: Matala: Keskiarvo:
Lämpötila: TemperatureC °F 0.0 °F 2.8 °F
Kastepiste: DewpointC °F -1.1 °F 1.4 °F
Kosteus: Humidity % 84 % 90 %
Tuulen nopeus: WindSpeedKMH mph 0.0 mph 3.4 mph
Tuulenpuuska: WindSpeedGustKMH mph - -
Tuuli:- - SSW
Ilmanpaine: PressurehPa in 1012.8 in -
Sade: 0.0 in    
Historical Graphs
 
 
Taulukkotiedot Marraskuu 7, 2017
Aika Lämpötila Kastepiste Ilmanpaine Tuuli Tuulen nopeus Tuulenpuuska Kosteus Sademäärä (tunneittain)
TemperatureC °F DewpointC °F PressurehPa in Calm     Humidity % HourlyPrecipMM in
00:00 1.1 °F -0.2 °F 1012.8 in SW 3.2 mph 11.3 mph 91 % 0.0 in
00:15 1.2 °F -0.1 °F 1012.8 in SW 3.2 mph 9.7 mph 91 % 0.0 in
00:30 1.3 °F 0.2 °F 1013.1 in SSW 4.8 mph 12.9 mph 92 % 0.0 in
00:45 1.6 °F 0.3 °F 1013.1 in SSW 4.8 mph 11.3 mph 91 % 0.0 in
01:00 1.6 °F 0.3 °F 1013.1 in SW 3.2 mph 17.7 mph 91 % 0.0 in
01:15 1.4 °F 0.1 °F 1013.4 in WSW 3.2 mph 14.5 mph 91 % 0.0 in
01:30 1.2 °F -0.1 °F 1013.4 in SW 1.6 mph 8.0 mph 91 % 0.0 in
01:45 1.0 °F -0.2 °F 1013.4 in SW 3.2 mph 9.7 mph 92 % 0.0 in
02:00 1.1 °F -0.1 °F 1013.8 in SSW 1.6 mph 9.7 mph 92 % 0.0 in
02:15 1.2 °F 0.0 °F 1013.8 in SSW 3.2 mph 8.0 mph 92 % 0.0 in
02:30 1.3 °F 0.0 °F 1013.8 in SSW 3.2 mph 11.3 mph 91 % 0.0 in
02:45 1.4 °F 0.1 °F 1014.1 in SW 4.8 mph 14.5 mph 91 % 0.0 in
03:00 1.4 °F 0.1 °F 1014.1 in SW 6.4 mph 14.5 mph 91 % 0.0 in
03:15 1.4 °F 0.1 °F 1014.1 in SSW 4.8 mph 12.9 mph 91 % 0.0 in
03:30 1.3 °F -0.2 °F 1014.4 in SW 4.8 mph 16.1 mph 90 % 0.0 in
03:45 1.2 °F -0.1 °F 1014.4 in SW 4.8 mph 12.9 mph 91 % 0.0 in
04:00 1.4 °F -0.1 °F 1014.8 in SW 4.8 mph 11.3 mph 90 % 0.0 in
04:15 1.4 °F 0.0 °F 1014.4 in SW 4.8 mph 12.9 mph 90 % 0.0 in
04:30 1.3 °F -0.1 °F 1014.8 in SW 3.2 mph 9.7 mph 90 % 0.0 in
04:45 1.3 °F -0.1 °F 1014.8 in SSW 3.2 mph 9.7 mph 90 % 0.0 in
05:00 1.3 °F -0.1 °F 1015.1 in SSW 4.8 mph 17.7 mph 90 % 0.0 in
05:15 1.4 °F -0.1 °F 1015.5 in SW 4.8 mph 11.3 mph 90 % 0.0 in
05:30 1.3 °F -0.2 °F 1015.5 in SSW 3.2 mph 8.0 mph 90 % 0.0 in
05:45 1.2 °F -0.3 °F 1015.8 in South 3.2 mph 12.9 mph 90 % 0.0 in
06:00 1.3 °F -0.1 °F 1015.8 in SW 3.2 mph 11.3 mph 90 % 0.0 in
06:15 1.5 °F -0.1 °F 1015.8 in SSW 4.8 mph 11.3 mph 89 % 0.0 in
06:30 1.6 °F -0.1 °F 1016.1 in SSW 4.8 mph 12.9 mph 89 % 0.0 in
06:45 1.3 °F -0.3 °F 1016.5 in SSW 3.2 mph 11.3 mph 89 % 0.0 in
07:00 1.1 °F -0.4 °F 1016.5 in SSW 3.2 mph 6.4 mph 90 % 0.0 in
07:15 0.8 °F -0.6 °F 1016.5 in SSW 3.2 mph 9.7 mph 90 % 0.0 in
07:30 0.6 °F -0.7 °F 1016.8 in SSW 1.6 mph 6.4 mph 91 % 0.0 in
07:45 0.5 °F -0.8 °F 1016.8 in Calm   6.4 mph 91 % 0.0 in
08:00 0.3 °F -0.8 °F 1017.2 in Calm   3.2 mph 92 % 0.0 in
08:15 0.0 °F -1.1 °F 1017.5 in SSW 1.6 mph 8.0 mph 92 % 0.0 in
08:30 0.1 °F -0.9 °F 1017.8 in SSW 4.8 mph 8.0 mph 93 % 0.0 in
08:45 0.0 °F -0.9 °F 1017.8 in SSW 3.2 mph 6.4 mph 94 % 0.0 in
09:00 0.2 °F -0.6 °F 1017.8 in SSW 3.2 mph 8.0 mph 94 % 0.0 in
09:15 0.3 °F -0.6 °F 1018.2 in Calm   6.4 mph 94 % 0.0 in
09:30 0.5 °F -0.4 °F 1018.5 in SW 1.6 mph 6.4 mph 94 % 0.0 in
09:45 0.8 °F -0.1 °F 1018.5 in SW 1.6 mph 4.8 mph 94 % 0.0 in
10:00 1.2 °F 0.3 °F 1018.5 in SW 1.6 mph 6.4 mph 94 % 0.0 in
10:15 1.7 °F 0.7 °F 1018.5 in SW 1.6 mph 6.4 mph 93 % 0.0 in
10:30 2.3 °F 1.0 °F 1018.8 in SSW 4.8 mph 8.0 mph 91 % 0.0 in
10:45 2.8 °F 1.3 °F 1019.2 in SSW 4.8 mph 16.1 mph 90 % 0.0 in
11:00 2.9 °F 1.3 °F 1019.2 in SSW 4.8 mph 11.3 mph 89 % 0.0 in
11:30 3.4 °F 1.8 °F 1019.5 in SSW 4.8 mph 9.7 mph 89 % 0.0 in
11:45 3.7 °F 1.9 °F 1019.5 in SSW 4.8 mph 12.9 mph 88 % 0.0 in
12:00 3.9 °F 2.1 °F 1019.5 in SSW 6.4 mph 14.5 mph 88 % 0.0 in
12:15 4.0 °F 2.0 °F 1019.9 in SSW 3.2 mph 9.7 mph 87 % 0.0 in
12:30 4.1 °F 2.3 °F 1019.9 in SSW 3.2 mph 12.9 mph 88 % 0.0 in
12:45 4.4 °F 2.5 °F 1019.5 in SSW 4.8 mph 14.5 mph 87 % 0.0 in
13:00 4.6 °F 2.4 °F 1019.9 in SSW 6.4 mph 14.5 mph 86 % 0.0 in
13:15 4.7 °F 2.6 °F 1019.9 in SSW 3.2 mph 9.7 mph 86 % 0.0 in
13:30 4.9 °F 2.6 °F 1019.9 in SSW 6.4 mph 14.5 mph 85 % 0.0 in
13:45 5.2 °F 2.7 °F 1019.9 in SSW 4.8 mph 14.5 mph 84 % 0.0 in
14:00 5.2 °F 2.9 °F 1019.5 in SSW 6.4 mph 17.7 mph 85 % 0.0 in
14:15 4.9 °F 2.6 °F 1019.9 in SSW 4.8 mph 9.7 mph 85 % 0.0 in
14:30 4.7 °F 2.5 °F 1019.9 in SSW 3.2 mph 11.3 mph 86 % 0.0 in
14:45 4.4 °F 2.4 °F 1019.9 in SSW 1.6 mph 11.3 mph 87 % 0.0 in
15:00 4.1 °F 2.2 °F 1019.9 in South 3.2 mph 9.7 mph 88 % 0.0 in
15:15 3.8 °F 2.3 °F 1019.9 in SSW 4.8 mph 9.7 mph 90 % 0.0 in
15:30 3.8 °F 2.3 °F 1019.9 in SSW 3.2 mph 9.7 mph 90 % 0.0 in
15:45 3.7 °F 2.2 °F 1019.9 in South 1.6 mph 8.0 mph 90 % 0.0 in
16:00 3.6 °F 2.2 °F 1019.5 in SSW 1.6 mph 8.0 mph 91 % 0.0 in
16:15 3.6 °F 2.4 °F 1019.5 in SSW 4.8 mph 11.3 mph 92 % 0.0 in
16:30 3.7 °F 2.5 °F 1019.5 in SSW 3.2 mph 11.3 mph 92 % 0.0 in
16:45 3.7 °F 2.5 °F 1019.5 in South 3.2 mph 9.7 mph 92 % 0.0 in
17:00 3.7 °F 2.5 °F 1019.9 in SSW 1.6 mph 6.4 mph 92 % 0.0 in
17:15 3.6 °F 2.6 °F 1019.9 in SSW 1.6 mph 6.4 mph 93 % 0.0 in
17:30 3.7 °F 2.6 °F 1019.9 in SSW 1.6 mph 6.4 mph 93 % 0.0 in
17:45 3.7 °F 2.6 °F 1019.9 in SSW 1.6 mph 4.8 mph 93 % 0.0 in
18:00 3.7 °F 2.8 °F 1019.9 in South 1.6 mph 9.7 mph 94 % 0.0 in
18:15 4.0 °F 3.1 °F 1019.9 in SSW 4.8 mph 11.3 mph 94 % 0.0 in
18:30 4.1 °F 3.1 °F 1019.9 in SSW 4.8 mph 12.9 mph 93 % 0.0 in
18:45 4.2 °F 3.1 °F 1019.9 in SSW 4.8 mph 17.7 mph 93 % 0.0 in
19:00 4.2 °F 3.2 °F 1019.9 in SSW 4.8 mph 11.3 mph 93 % 0.0 in
19:15 4.3 °F 3.1 °F 1019.9 in SSW 6.4 mph 16.1 mph 92 % 0.0 in
19:45 4.5 °F 3.2 °F 1020.2 in SSW 6.4 mph 17.7 mph 91 % 0.0 in
20:00 4.6 °F 3.1 °F 1020.2 in SSW 6.4 mph 16.1 mph 90 % 0.0 in
20:15 4.6 °F 3.1 °F 1020.2 in SSW 6.4 mph 16.1 mph 90 % 0.0 in
20:30 4.6 °F 3.0 °F 1020.5 in SSW 4.8 mph 14.5 mph 89 % 0.0 in
20:45 4.7 °F 2.8 °F 1020.5 in SSW 8.0 mph 19.3 mph 88 % 0.0 in
21:00 4.7 °F 3.0 °F 1020.5 in SSW 3.2 mph 14.5 mph 89 % 0.0 in
21:15 4.7 °F 3.0 °F 1020.5 in SSW 4.8 mph 12.9 mph 89 % 0.0 in
21:30 4.7 °F 3.0 °F 1020.5 in SSW 3.2 mph 9.7 mph 89 % 0.0 in
21:45 4.6 °F 3.1 °F 1020.5 in SSW 1.6 mph 8.0 mph 90 % 0.0 in
22:00 4.6 °F 3.2 °F 1020.5 in Calm   9.7 mph 91 % 0.0 in
22:15 4.5 °F 3.2 °F 1020.5 in South 1.6 mph 9.7 mph 91 % 0.0 in
22:30 4.5 °F 3.3 °F 1020.5 in SSW 1.6 mph 8.0 mph 92 % 0.0 in
22:45 4.4 °F 3.3 °F 1020.5 in SSW 1.6 mph 8.0 mph 92 % 0.0 in
23:00 4.3 °F 3.1 °F 1020.5 in Calm   8.0 mph 92 % 0.0 in
23:15 4.3 °F 3.3 °F 1020.9 in South 1.6 mph 8.0 mph 93 % 0.0 in
23:30 4.3 °F 3.3 °F 1020.5 in Calm   6.4 mph 93 % 0.0 in
23:45 4.3 °F 3.3 °F 1020.5 in South 1.6 mph 8.0 mph 93 % 0.0 in
Esan sääasema
Terveisin Weather Underground - 2.75 mb

Alkuperäinen skripti  Jim McMurry - jmcmurry@mwt.net Sovitettu myös templatelle  Wim van der Kuil - Leuven-Template.eu

Laitteet joita käytämme:

Sääasema
Davis VP2

Sääasemaohjelma
Cumulus

Sääaseman tietokone
Asus EeePC

Palveluntarjoaja
Suncomet

Davis VP2

Cumulus

Asus EeePC

Suncomet